Time;durP1;ratioP1;P1;durP2;ratioP2;P2;SDS_P1;SDS_P2;PMS_P1;PMS_P2;Temp;Humidity;BMP_temperature;BMP_pressure;BME280_temperature;BME280_humidity;BME280_pressure;Samples;Min_cycle;Max_cycle;Signal;HPM_P1;HPM_P2
2023/01/01 00:01:41;;;;;;;13.38;10.45;;;;;;;1.96;94.56;101881.25;1784422;80;20937;-88
2023/01/01 00:04:13;;;;;;;12.93;10.85;;;;;;;1.99;94.85;101892.86;1784233;78;20911;-89
2023/01/01 00:06:41;;;;;;;14.50;10.72;;;;;;;2.03;95.23;101882.08;1783824;78;21208;-86
2023/01/01 00:11:53;;;;;;;13.70;9.83;;;;;;;2.13;95.28;101882.89;1782062;80;20928;-85
2023/01/01 00:14:20;;;;;;;11.50;10.23;;;;;;;2.15;95.17;101896.68;1782099;80;20908;-86
2023/01/01 00:16:47;;;;;;;12.98;9.90;;;;;;;2.13;95.07;101895.38;1782505;80;21381;-87
2023/01/01 00:19:15;;;;;;;16.60;10.28;;;;;;;2.14;95.22;101885.48;1781823;80;21247;-87
2023/01/01 00:21:42;;;;;;;12.95;10.82;;;;;;;2.14;95.35;101888.50;1781787;80;20920;-87
2023/01/01 00:24:09;;;;;;;12.47;9.53;;;;;;;2.17;95.48;101871.66;1782221;80;20916;-86
2023/01/01 00:26:35;;;;;;;12.75;9.88;;;;;;;2.23;95.57;101870.34;1782231;80;21381;-84
2023/01/01 00:29:03;;;;;;;14.35;10.30;;;;;;;2.28;95.54;101880.23;1784381;78;20947;-87
2023/01/01 00:31:32;;;;;;;12.70;10.18;;;;;;;2.33;95.49;101878.47;1784255;79;21262;-87
2023/01/01 00:34:00;;;;;;;16.42;11.57;;;;;;;2.35;95.46;101878.02;1782358;80;20888;-86
2023/01/01 00:36:27;;;;;;;13.25;11.15;;;;;;;2.38;95.42;101874.55;1782305;80;21459;-88
2023/01/01 00:38:53;;;;;;;14.75;12.23;;;;;;;2.39;95.47;101876.29;1781778;80;21406;-88
2023/01/01 00:41:20;;;;;;;13.40;12.00;;;;;;;2.41;95.48;101879.73;1782081;80;20880;-89
2023/01/01 00:43:47;;;;;;;15.45;10.58;;;;;;;2.46;95.49;101873.64;1781730;80;21155;-89
2023/01/01 00:46:14;;;;;;;14.78;11.20;;;;;;;2.48;95.56;101865.43;1781498;80;20944;-88
2023/01/01 00:48:41;;;;;;;12.98;10.60;;;;;;;2.53;95.47;101851.60;1781480;80;21034;-88
2023/01/01 00:51:07;;;;;;;13.00;10.63;;;;;;;2.56;95.47;101853.75;1781721;80;20884;-89
2023/01/01 00:53:34;;;;;;;11.65;10.30;;;;;;;2.60;95.41;101858.45;1781463;80;20940;-88
2023/01/01 00:56:01;;;;;;;12.07;9.95;;;;;;;2.63;95.19;101862.33;1781484;80;21188;-88
2023/01/01 00:58:28;;;;;;;12.50;10.43;;;;;;;2.64;95.00;101853.67;1781412;80;20928;-90
2023/01/01 01:00:55;;;;;;;12.90;10.48;;;;;;;2.67;94.95;101868.77;1783700;80;20912;-90
2023/01/01 01:03:29;;;;;;;12.15;10.32;;;;;;;2.71;94.91;101877.36;1790100;80;20888;-87
2023/01/01 01:06:07;;;;;;;;;;;;;;;2.75;94.87;101885.54;1792514;80;20931;-87
2023/01/01 01:08:35;;;;;;;13.85;10.90;;;;;;;2.79;94.89;101880.77;1790137;80;21905;-88
2023/01/01 01:11:10;;;;;;;12.80;10.82;;;;;;;2.82;94.71;101871.66;1789662;80;20967;-88
2023/01/01 01:13:37;;;;;;;13.62;11.50;;;;;;;2.82;94.59;101867.78;1789629;80;20892;-87
2023/01/01 01:16:20;;;;;;;14.70;11.75;;;;;;;2.82;94.37;101853.97;1789775;80;20955;-86
2023/01/01 01:18:50;;;;;;;13.50;10.68;;;;;;;2.80;94.29;101854.42;1789797;80;20912;-87
2023/01/01 01:21:17;;;;;;;11.95;10.28;;;;;;;2.78;94.55;101862.22;1759665;80;21330;-88
2023/01/01 01:23:45;;;;;;;18.77;13.15;;;;;;;2.78;94.68;101854.86;1789899;80;20978;-87
2023/01/01 01:26:21;;;;;;;14.13;11.60;;;;;;;2.81;94.73;101862.19;1789758;80;20880;-87
2023/01/01 01:28:47;;;;;;;14.60;11.10;;;;;;;2.85;94.72;101863.89;1789776;80;20895;-87
2023/01/01 01:31:14;;;;;;;12.75;11.33;;;;;;;2.90;94.68;101861.26;1792074;78;20967;-88
2023/01/01 01:33:43;;;;;;;15.28;12.35;;;;;;;2.93;94.64;101851.30;1792406;78;21137;-87
2023/01/01 01:36:09;;;;;;;15.90;12.40;;;;;;;2.97;94.64;101854.30;1789827;80;20920;-88
2023/01/01 01:38:38;;;;;;;14.70;11.48;;;;;;;3.00;94.47;101843.89;1789937;80;20888;-87
2023/01/01 01:41:04;;;;;;;15.15;12.40;;;;;;;3.03;94.49;101844.73;1790859;80;20959;-88
2023/01/01 01:43:37;;;;;;;16.52;12.75;;;;;;;3.05;94.42;101846.03;1791627;80;20927;-87
2023/01/01 01:46:17;;;;;;;18.27;13.03;;;;;;;3.07;94.45;101843.84;1792903;80;21237;-86
2023/01/01 01:48:48;;;;;;;14.78;11.25;;;;;;;3.10;94.57;101847.69;1792907;80;21040;-88
2023/01/01 01:51:19;;;;;;;13.48;12.07;;;;;;;3.16;94.63;101848.08;1791285;80;20920;-87
2023/01/01 01:53:50;;;;;;;16.02;13.58;;;;;;;3.22;94.65;101831.14;1789800;80;20919;-88
2023/01/01 01:56:43;;;;;;;16.77;13.25;;;;;;;3.28;94.55;101827.20;1789810;80;20888;-88
2023/01/01 01:59:09;;;;;;;14.07;12.13;;;;;;;3.36;94.46;101828.44;1789442;80;21196;-88
2023/01/01 02:01:37;;;;;;;15.10;12.40;;;;;;;3.45;94.38;101841.75;1785412;80;20881;-88
2023/01/01 02:04:04;;;;;;;18.98;13.32;;;;;;;3.49;94.27;101852.06;1781367;80;20971;-89
2023/01/01 02:06:31;;;;;;;17.15;13.15;;;;;;;3.53;94.14;101845.98;1781352;80;20854;-88
2023/01/01 02:09:02;;;;;;;17.73;13.93;;;;;;;3.55;93.89;101842.05;1781408;80;20935;-87
2023/01/01 02:11:29;;;;;;;16.42;13.90;;;;;;;3.53;93.73;101824.34;1781273;80;21795;-89
2023/01/01 02:13:58;;;;;;;16.50;13.85;;;;;;;3.52;93.74;101824.80;1781339;80;20884;-87
2023/01/01 02:16:51;;;;;;;19.20;13.58;;;;;;;3.55;93.84;101821.30;1781701;80;20987;-89
2023/01/01 02:19:55;;;;;;;18.02;14.28;;;;;;;3.55;93.96;101822.59;1780777;80;20876;-89
2023/01/01 02:23:47;;;;;;;16.80;14.33;;;;;;;3.61;94.11;101794.00;1854164;77;22545;-88
2023/01/01 02:26:37;;;;;;;20.17;15.13;;;;;;;3.56;94.17;101788.02;1826428;78;20848;-89
2023/01/01 02:29:35;;;;;;;22.20;15.25;;;;;;;3.55;94.10;101774.62;1826150;78;21115;-89
2023/01/01 02:32:10;;;;;;;17.95;15.43;;;;;;;3.53;94.00;101778.96;1826443;78;20915;-89
2023/01/01 02:34:44;;;;;;;17.67;15.08;;;;;;;3.49;94.13;101784.64;1827116;78;20930;-89
2023/01/01 02:37:13;;;;;;;18.30;15.20;;;;;;;3.46;94.34;101771.69;1819295;78;20958;-87
2023/01/01 02:39:45;;;;;;;17.45;14.35;;;;;;;3.45;94.41;101750.98;1829227;78;20931;-86
2023/01/01 02:42:12;;;;;;;17.10;15.23;;;;;;;3.46;94.61;101770.39;1827118;78;21859;-87
2023/01/01 02:44:41;;;;;;;20.35;15.50;;;;;;;3.49;94.75;101778.16;1826675;78;20963;-88
2023/01/01 02:47:14;;;;;;;18.82;14.80;;;;;;;3.53;94.79;101786.74;1826676;78;20927;-88
2023/01/01 02:49:57;;;;;;;19.80;15.95;;;;;;;3.55;94.87;101786.28;1793057;80;20939;-86
2023/01/01 02:52:49;;;;;;;20.90;16.95;;;;;;;3.57;94.86;101768.98;1759038;81;20896;-88
2023/01/01 02:55:31;;;;;;;21.82;16.00;;;;;;;3.58;94.85;101751.26;1790187;79;21231;-88
2023/01/01 03:01:36;;;;;;;24.02;17.92;;;;;;;3.61;94.68;101736.94;1792481;77;20955;-89
2023/01/01 03:04:16;;;;;;;27.42;17.98;;;;;;;3.58;94.58;101733.10;1791057;77;20881;-88
2023/01/01 03:07:07;;;;;;;21.97;15.63;;;;;;;3.53;94.59;101747.42;1788978;80;20880;-87
2023/01/01 03:10:00;;;;;;;20.95;16.35;;;;;;;3.50;94.63;101764.75;1789728;80;21250;-88
2023/01/01 03:12:42;;;;;;;19.30;16.20;;;;;;;3.49;94.83;101760.00;1789572;80;20975;-88
2023/01/01 03:15:23;;;;;;;24.25;18.25;;;;;;;3.53;94.98;101775.95;1789892;80;20982;-87
2023/01/01 03:18:07;;;;;;;25.97;18.32;;;;;;;3.58;95.08;101781.08;1789995;80;20939;-87
2023/01/01 03:20:39;;;;;;;25.43;17.95;;;;;;;3.63;95.00;101777.98;1788776;80;20978;-88
2023/01/01 03:23:09;;;;;;;23.80;18.00;;;;;;;3.68;94.74;101755.87;1786139;80;21130;-89
2023/01/01 03:25:41;;;;;;;26.02;18.90;;;;;;;3.68;94.41;101737.27;1784377;80;21409;-88
2023/01/01 03:28:13;;;;;;;24.15;19.23;;;;;;;3.64;94.38;101734.74;1784515;80;20889;-88
2023/01/01 03:30:39;;;;;;;25.08;19.10;;;;;;;3.59;94.44;101745.63;1784584;80;20919;-87
2023/01/01 03:33:14;;;;;;;25.90;18.60;;;;;;;3.57;94.56;101736.55;1785133;80;20844;-86
2023/01/01 03:35:47;;;;;;;;;;;;;;;3.52;94.72;101726.24;1825588;78;21139;-88
2023/01/01 03:38:22;;;;;;;25.05;18.20;;;;;;;3.50;94.92;101717.63;1823178;78;20406;-88
2023/01/01 03:40:50;;;;;;;26.00;20.37;;;;;;;3.47;95.09;101720.72;1822939;78;21451;-89
2023/01/01 03:43:35;;;;;;;26.77;19.00;;;;;;;3.43;95.31;101718.59;1825332;78;20998;-88
2023/01/01 03:46:02;;;;;;;27.85;19.17;;;;;;;3.42;95.51;101733.70;1813104;78;21152;-87
2023/01/01 03:48:54;;;;;;;30.15;22.62;;;;;;;3.41;95.72;101725.52;1793848;78;21112;-86
2023/01/01 03:51:09;;;;;;;29.12;20.62;;;;;;;3.39;95.89;101749.31;1821042;78;20880;-88
2023/01/01 03:53:42;;;;;;;25.20;19.07;;;;;;;3.36;96.21;101740.29;1826488;78;20847;-88
2023/01/01 03:56:20;;;;;;;23.57;17.55;;;;;;;3.35;96.36;101747.63;1794226;78;20954;-89
2023/01/01 03:58:55;;;;;;;24.10;19.45;;;;;;;3.38;96.59;101744.14;1811125;78;21029;-88
2023/01/01 04:01:30;;;;;;;26.85;19.00;;;;;;;3.40;96.76;101750.16;1825555;78;21189;-88
2023/01/01 04:03:56;;;;;;;24.15;19.20;;;;;;;3.44;96.92;101739.73;1823264;78;20923;-89
2023/01/01 04:06:23;;;;;;;25.75;20.00;;;;;;;3.48;96.91;101740.12;1822929;78;20884;-88
2023/01/01 04:08:52;;;;;;;25.37;18.55;;;;;;;3.50;96.93;101735.78;1822911;78;21457;-89
2023/01/01 04:14:07;;;;;;;29.72;19.25;;;;;;;3.58;97.06;101726.62;1822959;78;21197;-88
2023/01/01 04:16:33;;;;;;;28.25;19.05;;;;;;;3.57;96.95;101727.48;1822788;78;20966;-89
2023/01/01 04:19:00;;;;;;;28.35;20.65;;;;;;;3.56;96.98;101728.78;1822912;78;21441;-87
2023/01/01 04:21:26;;;;;;;32.90;21.62;;;;;;;3.53;96.95;101731.87;1822793;78;21404;-88
2023/01/01 04:23:53;;;;;;;28.52;20.77;;;;;;;3.47;97.08;101729.34;1806519;78;20952;-88
2023/01/01 04:26:21;;;;;;;25.80;18.82;;;;;;;3.45;97.22;101733.69;1806033;79;21121;-87
2023/01/01 04:28:47;;;;;;;27.90;19.90;;;;;;;3.43;97.47;101736.73;1806458;79;21130;-87
2023/01/01 04:31:14;;;;;;;24.65;19.12;;;;;;;3.42;97.76;101725.92;1806804;79;20782;-87
2023/01/01 04:33:40;;;;;;;27.13;20.23;;;;;;;3.42;97.96;101714.27;1805301;79;20881;-87
2023/01/01 04:36:08;;;;;;;24.90;18.50;;;;;;;3.43;98.28;101712.55;1804504;79;20955;-88
2023/01/01 04:38:35;;;;;;;26.42;19.42;;;;;;;3.44;98.46;101710.36;1804187;79;21068;-88
2023/01/01 04:41:02;;;;;;;24.52;18.62;;;;;;;3.45;98.52;101710.80;1804132;78;20877;-88
2023/01/01 04:43:29;;;;;;;23.67;17.00;;;;;;;3.46;98.61;101704.27;1805138;79;20861;-86
2023/01/01 04:46:01;;;;;;;24.40;17.98;;;;;;;3.45;98.60;101718.58;1806732;79;20967;-85
2023/01/01 04:48:29;;;;;;;23.52;17.45;;;;;;;3.44;98.68;101713.80;1807204;79;20936;-86
2023/01/01 04:50:59;;;;;;;20.45;16.62;;;;;;;3.44;98.75;101711.21;1807097;79;21187;-86
2023/01/01 04:53:28;;;;;;;22.55;17.25;;;;;;;3.48;98.88;101710.75;1807175;79;21346;-84
2023/01/01 04:56:13;;;;;;;22.32;16.62;;;;;;;3.53;98.91;101707.64;1804948;79;20888;-87
2023/01/01 04:58:40;;;;;;;22.75;16.60;;;;;;;3.55;98.83;101724.05;1804592;79;20971;-85
2023/01/01 05:01:08;;;;;;;20.05;15.78;;;;;;;3.59;98.86;101711.45;1804778;79;20999;-85
2023/01/01 05:03:36;;;;;;;24.85;17.15;;;;;;;3.59;98.79;101723.12;1804480;79;21148;-86
2023/01/01 05:06:08;;;;;;;24.72;17.02;;;;;;;3.62;98.82;101720.93;1775993;79;20873;-87
2023/01/01 05:08:38;;;;;;;21.33;16.12;;;;;;;3.66;98.83;101724.76;1804575;79;20912;-87
2023/01/01 05:11:07;;;;;;;21.90;17.32;;;;;;;3.69;98.79;101736.41;1804387;79;20845;-90
2023/01/01 05:13:38;;;;;;;20.10;15.83;;;;;;;3.73;98.82;101744.98;1804663;79;20872;-86
2023/01/01 05:16:06;;;;;;;24.90;17.52;;;;;;;3.79;98.71;101753.14;1807085;79;21106;-85
2023/01/01 05:18:34;;;;;;;26.60;17.85;;;;;;;3.83;98.66;101759.56;1807112;79;20876;-88
2023/01/01 05:21:07;;;;;;;23.47;17.90;;;;;;;3.88;98.63;101761.65;1807132;78;20971;-88
2023/01/01 05:23:34;;;;;;;25.97;17.98;;;;;;;3.94;98.35;101768.05;1813515;77;20974;-88
2023/01/01 05:26:04;;;;;;;24.63;19.12;;;;;;;4.00;98.17;101764.95;1815281;79;20928;-87
2023/01/01 05:28:31;;;;;;;25.57;18.35;;;;;;;4.04;97.86;101754.50;1783899;79;21168;-88
2023/01/01 05:30:58;;;;;;;22.37;16.82;;;;;;;4.06;97.37;101759.67;1815216;79;20967;-89
2023/01/01 05:33:27;;;;;;;21.33;16.65;;;;;;;4.07;97.45;101748.40;1814721;79;21369;-89
2023/01/01 05:35:54;;;;;;;20.40;16.15;;;;;;;4.12;97.49;101742.27;1814788;79;21057;-88
2023/01/01 05:38:20;;;;;;;19.67;15.50;;;;;;;4.18;97.34;101735.27;1814634;79;20939;-89
2023/01/01 05:40:47;;;;;;;23.47;16.48;;;;;;;4.21;97.25;101727.45;1814569;79;21247;-89
2023/01/01 05:43:17;;;;;;;21.17;16.82;;;;;;;4.25;97.22;101727.81;1814561;79;20971;-88
2023/01/01 05:45:44;;;;;;;23.38;17.30;;;;;;;4.29;97.11;101719.95;1814624;79;20927;-89
2023/01/01 05:48:11;;;;;;;22.90;17.85;;;;;;;4.31;96.76;101712.12;1814308;79;21369;-89
2023/01/01 05:50:37;;;;;;;22.17;17.17;;;;;;;4.32;96.43;101721.64;1814415;79;20861;-90
2023/01/01 05:53:04;;;;;;;19.05;14.83;;;;;;;4.32;96.20;101719.89;1814521;79;21164;-88
2023/01/01 05:55:30;;;;;;;20.62;15.32;;;;;;;4.29;96.10;101719.95;1814278;79;20971;-91
2023/01/01 05:57:57;;;;;;;19.55;15.00;;;;;;;4.24;96.20;101719.59;1815355;79;20872;-90
2023/01/01 06:00:27;;;;;;;21.05;15.93;;;;;;;4.23;96.35;101714.85;1817244;77;20892;-89
2023/01/01 06:02:53;;;;;;;19.55;14.95;;;;;;;4.22;96.42;101709.23;1816990;77;20866;-88
2023/01/01 06:05:20;;;;;;;20.32;16.07;;;;;;;4.23;96.50;101708.36;1815591;79;21041;-91
2023/01/01 06:07:47;;;;;;;19.65;15.70;;;;;;;4.22;96.55;101705.33;1815292;79;20967;-89
2023/01/01 06:10:13;;;;;;;20.52;16.07;;;;;;;4.22;96.68;101707.08;1815836;79;20888;-88
2023/01/01 06:12:41;;;;;;;26.07;18.23;;;;;;;4.23;96.88;101701.88;1816333;79;21386;-90
2023/01/01 06:15:08;;;;;;;19.55;15.45;;;;;;;4.26;96.89;101699.21;1794012;79;21066;-88
2023/01/01 06:17:37;;;;;;;22.67;14.95;;;;;;;4.31;96.93;101696.12;1815540;79;22016;-88
2023/01/01 06:20:05;;;;;;;19.57;15.70;;;;;;;4.34;96.92;101698.66;1815662;79;20979;-89
2023/01/01 06:22:36;;;;;;;20.20;15.23;;;;;;;4.37;96.91;101697.73;1815152;79;20924;-89
2023/01/01 06:25:06;;;;;;;21.73;15.20;;;;;;;4.37;96.84;101699.04;1806339;79;20893;-90
2023/01/01 06:27:35;;;;;;;20.72;16.85;;;;;;;4.39;96.85;101700.33;1806322;79;20881;-89
2023/01/01 06:30:05;;;;;;;21.10;15.30;;;;;;;4.42;96.82;101702.41;1805026;78;21178;-89
2023/01/01 06:32:32;;;;;;;21.48;16.67;;;;;;;4.44;96.69;101695.90;1805421;79;20884;-89
2023/01/01 06:34:59;;;;;;;21.65;16.10;;;;;;;4.43;96.77;101699.39;1806393;79;21389;-90
2023/01/01 06:37:27;;;;;;;23.38;17.57;;;;;;;4.43;96.91;101696.34;1806679;79;20897;-88
2023/01/01 06:39:54;;;;;;;20.82;15.65;;;;;;;4.44;97.04;101698.49;1806366;79;20904;-87
2023/01/01 06:42:20;;;;;;;21.45;16.93;;;;;;;4.46;97.19;101696.73;1805709;79;21106;-89
2023/01/01 06:44:47;;;;;;;19.48;15.78;;;;;;;4.51;97.27;101703.58;1804929;78;21275;-87
2023/01/01 06:47:14;;;;;;;22.02;16.25;;;;;;;4.55;97.27;101696.56;1805282;79;20833;-88
2023/01/01 06:49:41;;;;;;;20.52;15.30;;;;;;;4.59;97.24;101704.73;1805071;79;20978;-89
2023/01/01 06:52:09;;;;;;;21.60;17.87;;;;;;;4.64;97.21;101726.27;1805151;79;20952;-88
2023/01/01 06:54:37;;;;;;;25.27;17.57;;;;;;;4.69;97.27;101726.19;1805533;79;21279;-88
2023/01/01 06:57:04;;;;;;;21.62;15.93;;;;;;;4.73;97.36;101733.05;1804855;79;21402;-88
2023/01/01 06:59:31;;;;;;;25.45;19.27;;;;;;;4.78;97.28;101754.19;1804835;79;20889;-86
2023/01/01 07:01:58;;;;;;;24.15;18.07;;;;;;;4.86;97.15;101768.78;1804885;79;20956;-91
2023/01/01 07:04:25;;;;;;;24.30;17.15;;;;;;;4.90;96.98;101773.05;1804832;79;20849;-88
2023/01/01 07:06:52;;;;;;;23.65;17.32;;;;;;;4.95;96.78;101775.95;1807111;79;21083;-89
2023/01/01 07:09:19;;;;;;;25.27;18.77;;;;;;;4.99;96.61;101773.73;1806958;79;20951;-88
2023/01/01 07:11:46;;;;;;;23.10;18.30;;;;;;;5.06;96.55;101773.63;1806292;79;21350;-89
2023/01/01 07:14:12;;;;;;;22.48;17.65;;;;;;;5.10;96.33;101776.13;1805331;79;21390;-87
2023/01/01 07:16:40;;;;;;;21.85;16.00;;;;;;;5.12;96.27;101764.41;1805205;79;20873;-87
2023/01/01 07:19:09;;;;;;;20.27;16.55;;;;;;;5.13;95.94;101758.31;1804940;79;20975;-88
2023/01/01 07:21:46;;;;;;;19.85;16.17;;;;;;;5.10;95.95;101753.19;1804773;79;20837;-89
2023/01/01 07:24:14;;;;;;;23.25;16.20;;;;;;;5.10;95.98;101750.13;1811224;78;20895;-89
2023/01/01 07:26:40;;;;;;;22.35;17.12;;;;;;;5.16;96.06;101756.97;1810668;78;20939;-89
2023/01/01 07:29:09;;;;;;;23.50;17.48;;;;;;;5.19;95.98;101757.75;1811145;79;20817;-89
2023/01/01 07:31:39;;;;;;;22.10;16.75;;;;;;;5.26;96.03;101754.59;1812568;78;21174;-89
2023/01/01 07:34:08;;;;;;;26.97;19.85;;;;;;;5.35;95.93;101747.90;1811659;78;20895;-90
2023/01/01 07:36:36;;;;;;;25.52;18.90;;;;;;;5.42;95.55;101754.29;1810290;79;20825;-91
2023/01/01 07:39:05;;;;;;;22.52;16.73;;;;;;;5.49;95.35;101750.66;1810461;79;20896;-89
2023/01/01 07:41:34;;;;;;;22.95;17.92;;;;;;;5.56;95.25;101746.63;1809993;79;20845;-90
2023/01/01 07:44:00;;;;;;;22.62;16.15;;;;;;;5.69;95.16;101745.92;1809999;78;21256;-88
2023/01/01 07:46:27;;;;;;;22.62;16.42;;;;;;;5.78;94.94;101734.42;1809801;79;20991;-90
2023/01/01 07:48:55;;;;;;;20.95;16.23;;;;;;;5.88;94.60;101730.74;1810333;79;20916;-91
2023/01/01 07:51:22;;;;;;;23.95;17.92;;;;;;;5.98;94.09;101732.71;1810331;79;20884;-90
2023/01/01 07:53:52;;;;;;;23.60;17.42;;;;;;;6.04;93.59;101742.99;1810631;79;21438;-90
2023/01/01 07:56:18;;;;;;;22.37;17.65;;;;;;;6.09;93.34;101750.27;1810070;79;21136;-90
2023/01/01 07:58:46;;;;;;;22.37;16.50;;;;;;;6.15;93.15;101754.02;1809855;78;20924;-90
2023/01/01 08:01:14;;;;;;;21.25;16.77;;;;;;;6.23;92.65;101757.30;1810588;79;20900;-88
2023/01/01 08:03:41;;;;;;;18.55;15.68;;;;;;;6.34;92.54;101771.84;1809886;79;21409;-88
2023/01/01 08:06:12;;;;;;;21.10;16.35;;;;;;;6.44;92.53;101770.25;1810115;78;21326;-90
2023/01/01 08:08:39;;;;;;;17.87;14.47;;;;;;;6.57;92.16;101760.39;1810261;79;20959;-91
2023/01/01 08:11:07;;;;;;;19.80;15.53;;;;;;;6.63;91.04;101751.13;1810213;78;20833;-88
2023/01/01 08:13:34;;;;;;;18.85;15.08;;;;;;;6.62;90.48;101751.15;1809742;79;20848;-87
2023/01/01 08:16:01;;;;;;;18.70;14.95;;;;;;;6.60;90.37;101736.88;1809991;79;20916;-89
2023/01/01 08:18:27;;;;;;;19.10;15.50;;;;;;;6.57;90.21;101736.09;1810145;79;20912;-89
2023/01/01 08:20:56;;;;;;;16.35;14.07;;;;;;;6.58;90.22;101741.69;1810545;79;21267;-88
2023/01/01 08:23:23;;;;;;;17.12;14.45;;;;;;;6.56;90.01;101740.45;1810826;79;20892;-88
2023/01/01 08:25:49;;;;;;;19.05;14.05;;;;;;;6.55;89.99;101740.02;1812987;79;21006;-88
2023/01/01 08:28:16;;;;;;;18.10;13.55;;;;;;;6.53;90.02;101735.75;1816247;79;20979;-88
2023/01/01 08:30:42;;;;;;;23.52;16.27;;;;;;;6.53;90.20;101740.50;1815322;79;20928;-89
2023/01/01 08:33:09;;;;;;;21.25;15.85;;;;;;;6.58;90.50;101745.18;1815143;79;21212;-88
2023/01/01 08:35:37;;;;;;;16.73;13.68;;;;;;;6.70;90.67;101744.45;1814427;79;20971;-87
2023/01/01 08:38:03;;;;;;;19.52;15.18;;;;;;;6.81;90.42;101738.52;1814543;79;21428;-89
2023/01/01 08:40:30;;;;;;;20.17;15.60;;;;;;;6.88;89.89;101736.14;1814846;79;20955;-89
2023/01/01 08:42:56;;;;;;;19.30;14.98;;;;;;;6.93;89.50;101734.72;1816276;79;20852;-88
2023/01/01 08:45:23;;;;;;;19.73;14.68;;;;;;;6.92;89.18;101724.73;1816454;78;21223;-87
2023/01/01 08:47:50;;;;;;;18.45;14.33;;;;;;;6.92;88.93;101741.69;1817451;79;20931;-89
2023/01/01 08:50:18;;;;;;;16.82;13.93;;;;;;;6.91;88.81;101744.33;1817429;79;20948;-88
2023/01/01 08:52:45;;;;;;;16.45;13.68;;;;;;;6.88;88.84;101727.47;1794867;79;20825;-88
2023/01/01 08:55:12;;;;;;;17.32;12.68;;;;;;;6.90;89.11;101719.16;1817636;77;20821;-88
2023/01/01 08:57:38;;;;;;;19.25;15.15;;;;;;;6.92;89.03;101722.59;1817572;79;21091;-88
2023/01/01 09:00:08;;;;;;;17.70;14.78;;;;;;;6.91;89.12;101709.98;1817071;79;20900;-88
2023/01/01 09:02:34;;;;;;;17.23;13.68;;;;;;;6.94;89.24;101714.28;1816659;77;21178;-91
2023/01/01 09:05:05;;;;;;;16.70;13.55;;;;;;;6.98;89.24;101716.76;1817513;79;20908;-89
2023/01/01 09:07:32;;;;;;;18.90;14.45;;;;;;;7.02;89.13;101718.36;1817341;79;20888;-88
2023/01/01 09:10:01;;;;;;;16.42;13.68;;;;;;;7.06;89.06;101713.47;1758327;81;21018;-89
2023/01/01 09:12:32;;;;;;;18.40;14.25;;;;;;;7.13;89.00;101710.24;1758033;81;20935;-88
2023/01/01 09:15:05;;;;;;;16.05;12.90;;;;;;;7.18;88.99;101708.37;1757565;81;20962;-89
2023/01/01 09:17:32;;;;;;;18.20;13.20;;;;;;;7.26;88.84;101704.23;1757325;81;20954;-87
2023/01/01 09:20:01;;;;;;;13.83;12.30;;;;;;;7.33;88.82;101692.71;1757818;81;20986;-88
2023/01/01 09:22:36;;;;;;;15.20;12.98;;;;;;;7.45;88.73;101692.83;1758634;81;20974;-89
2023/01/01 09:25:04;;;;;;;15.32;12.93;;;;;;;7.57;88.22;101691.59;1758766;81;20987;-89
2023/01/01 09:27:32;;;;;;;17.12;12.50;;;;;;;7.67;88.10;101686.51;1753950;81;20908;-89
2023/01/01 09:30:03;;;;;;;14.95;12.35;;;;;;;7.77;87.53;101677.93;1758115;81;20963;-89
2023/01/01 09:32:35;;;;;;;15.88;13.08;;;;;;;7.83;87.36;101684.27;1758517;81;20963;-88
2023/01/01 09:35:09;;;;;;;15.75;11.90;;;;;;;7.93;86.98;101675.22;1757974;81;21112;-88
2023/01/01 09:37:39;;;;;;;13.88;12.40;;;;;;;8.00;86.63;101683.26;1758437;81;20982;-89
2023/01/01 09:40:07;;;;;;;15.38;13.13;;;;;;;8.06;86.55;101679.61;1764975;78;20892;-89
2023/01/01 09:42:48;;;;;;;13.98;12.30;;;;;;;8.11;86.15;101671.16;1826913;78;20903;-88
2023/01/01 09:45:26;;;;;;;16.52;13.78;;;;;;;8.15;85.83;101679.30;1825356;78;20884;-88
2023/01/01 09:48:06;;;;;;;17.55;12.88;;;;;;;8.15;85.73;101662.78;1826822;78;21150;-87
2023/01/01 09:50:42;;;;;;;17.00;13.15;;;;;;;8.16;85.70;101664.48;1796240;78;20891;-89
2023/01/01 09:53:34;;;;;;;14.25;11.33;;;;;;;8.14;85.66;101670.20;1792546;79;20927;-90
2023/01/01 09:56:05;;;;;;;20.35;13.78;;;;;;;8.17;85.69;101664.89;1792904;80;20986;-89
2023/01/01 09:58:38;;;;;;;17.42;12.80;;;;;;;8.22;85.78;101679.50;1766962;80;20947;-88
2023/01/01 10:01:50;;;;;;;17.35;14.43;;;;;;;8.23;85.70;101659.47;1793202;80;21259;-89
2023/01/01 10:04:56;;;;;;;17.05;13.80;;;;;;;8.23;85.84;101652.48;1792581;80;20974;-91
2023/01/01 10:08:05;;;;;;;20.20;15.20;;;;;;;8.26;85.95;101664.58;1792347;78;20892;-89
2023/01/01 10:11:09;;;;;;;18.42;14.68;;;;;;;8.32;86.06;101661.77;1688551;85;21050;-91
2023/01/01 10:13:44;;;;;;;18.07;14.75;;;;;;;8.37;85.96;101645.47;1643571;84;20901;-89
2023/01/01 10:16:33;;;;;;;19.35;16.05;;;;;;;8.41;85.72;101641.03;1612112;89;21275;-90
2023/01/01 10:19:25;;;;;;;17.05;15.03;;;;;;;8.41;85.70;101632.73;1612112;87;21000;-90
2023/01/01 10:21:57;;;;;;;19.45;16.30;;;;;;;8.39;85.68;101634.97;1642495;85;20965;-88
2023/01/01 10:24:39;;;;;;;19.40;14.78;;;;;;;8.38;85.87;101631.94;1612428;86;20945;-88
2023/01/01 10:27:09;;;;;;;20.85;16.87;;;;;;;8.36;86.09;101638.98;1639287;86;20897;-91
2023/01/01 10:29:47;;;;;;;23.40;16.30;;;;;;;8.33;86.39;101642.55;1608458;87;21048;-90
2023/01/01 10:32:31;;;;;;;19.12;15.20;;;;;;;8.33;86.71;101631.25;1694107;84;20888;-88
2023/01/01 10:35:07;;;;;;;22.02;16.20;;;;;;;8.38;86.98;101635.44;1672573;82;20974;-89
2023/01/01 10:37:39;;;;;;;17.67;15.28;;;;;;;8.46;87.14;101634.72;1674108;82;21042;-90
2023/01/01 10:40:23;;;;;;;22.75;17.35;;;;;;;8.54;86.89;101620.52;1672034;86;21038;-90
2023/01/01 10:42:52;;;;;;;23.57;18.50;;;;;;;8.59;86.72;101631.70;1710211;84;21299;-89
2023/01/01 10:45:34;;;;;;;23.27;17.35;;;;;;;8.63;86.64;101626.77;1720825;83;20936;-89
2023/01/01 10:48:25;;;;;;;20.10;15.72;;;;;;;8.66;86.48;101641.02;1693111;84;21006;-87
2023/01/01 10:51:03;;;;;;;18.77;16.00;;;;;;;8.73;86.26;101637.73;1689624;85;20974;-91
2023/01/01 10:53:43;;;;;;;23.83;14.35;;;;;;;8.78;86.18;101630.14;1691217;81;20970;-89
2023/01/01 10:56:15;;;;;;;16.52;14.20;;;;;;;8.91;86.23;101644.91;1691802;85;21270;-90
2023/01/01 10:58:45;;;;;;;22.90;16.15;;;;;;;9.00;85.80;101628.86;1706998;80;20940;-90
2023/01/01 11:01:23;;;;;;;19.73;16.00;;;;;;;9.06;85.74;101631.26;1766857;80;21401;-90
2023/01/01 11:04:16;;;;;;;22.87;17.98;;;;;;;9.15;85.51;101633.98;1793887;80;21139;-89
2023/01/01 11:06:46;;;;;;;25.65;18.35;;;;;;;9.21;85.16;101621.14;1793359;80;20861;-89
2023/01/01 11:09:27;;;;;;;19.75;16.17;;;;;;;9.28;84.96;101614.75;1793876;80;21102;-89
2023/01/01 11:12:03;;;;;;;20.12;15.00;;;;;;;9.30;84.74;101616.86;1793957;80;20942;-89
2023/01/01 11:14:37;;;;;;;22.25;14.05;;;;;;;9.32;84.79;101605.88;1792977;80;20959;-89
2023/01/01 11:17:08;;;;;;;17.17;14.85;;;;;;;9.36;84.63;101601.35;1789489;80;20927;-91
2023/01/01 11:19:39;;;;;;;18.57;14.87;;;;;;;9.38;84.15;101605.61;1764554;80;20947;-90
2023/01/01 11:22:32;;;;;;;19.73;16.90;;;;;;;9.42;84.11;101598.03;1793439;80;20899;-90
2023/01/01 11:25:31;;;;;;;18.65;15.10;;;;;;;9.49;84.09;101596.91;1755331;80;20931;-90
2023/01/01 11:28:30;;;;;;;17.77;14.43;;;;;;;9.61;83.37;101606.50;1727635;82;20948;-90
2023/01/01 11:31:24;;;;;;;18.48;14.85;;;;;;;9.64;83.00;101594.11;1555994;91;21011;-90
2023/01/01 11:33:54;;;;;;;17.85;14.18;;;;;;;9.70;82.98;101583.86;1554628;92;21074;-89
2023/01/01 11:36:26;;;;;;;17.35;13.40;;;;;;;9.76;82.67;101584.92;1554641;92;21953;-88
2023/01/01 11:39:25;;;;;;;23.18;16.40;;;;;;;9.82;82.62;101580.72;1555031;92;21746;-91
2023/01/01 11:41:55;;;;;;;20.68;15.75;;;;;;;9.92;82.53;101586.45;1555368;91;20908;-94
2023/01/01 11:44:28;;;;;;;20.85;16.10;;;;;;;10.05;81.96;101576.27;1555122;92;21501;-90
2023/01/01 11:46:54;;;;;;;20.75;16.35;;;;;;;10.14;81.68;101587.23;1555205;92;21006;-91
2023/01/01 11:49:26;;;;;;;20.65;17.05;;;;;;;10.21;81.43;101583.90;1555167;92;21301;-90